Tiempo atmosférico en la estación meteorológica de Espiel, Córdoba (465 m.)



Fecha
DESCASC
Temp. máxima en grados centígrados (hora)
DESCASC
Temp. mínima en grados centígrados (hora)
DESCASC
Temp. media en grados centígrados
DESCASC
Racha de viento máxima en m/sg (hora)
DESCASC
Velocidad máxima media en intervalos de 10 minutos(hora)
DESCASC
Precipitaciones diarias en mm
DESCASC
Precipitaciones de 00:00 a 06:00 en mm
DESCASC
Precipitaciones de 06:00 a 12:00 en mm
DESCASC
Precipitaciones de 12:00 a 18:00 en mm
DESCASC
Precipitaciones de 18:00 a 24:00 en mm
DESCASC
26-03-2020 20.1 (15:00) 8.6 (07:20) 14.4 10.83 (16:00) 5.28 (16:00) 3.4 3.4 0 0 0
25-03-2020 19.3 (17:30) 7 (05:40) 13.1 5.56 (17:00) 2.5 (17:00) 0 0 0 0 0
24-03-2020 18.5 (17:20) 5.5 (04:50) 12 8.33 (11:20) 4.17 (12:30) 0.2 0 0.2 0 0
23-03-2020 16.4 (15:40) 6.1 (06:10) 11.2 11.67 (19:00) 3.89 (19:00) 1.8 0.2 0 0 1.6
22-03-2020 13.7 (16:00) 5.1 (01:50) 9.4 7.22 (16:50) 3.61 (16:50) 9.4 0.2 4 5.2 0
21-03-2020 14.2 (14:10) 6.7 (00:00) 10.4 10.56 (04:20) 4.72 (04:20) 13.4 9.4 0 2.2 1.8
20-03-2020 17.4 (17:00) 10 (00:00) 13.7 7.5 (22:30) 2.78 (22:10) 0.2 0 0 0 0.2
19-03-2020 20.3 (16:50) 5.8 (00:00) 13 5.83 (17:10) 2.78 (17:20) 0 0 0 0 0
18-03-2020 21.6 (16:00) 9.6 (00:00) 15.6 11.94 (07:50) 5.28 (07:50) 0 0 0 0 0
17-03-2020 17.1 (16:20) 5.2 (00:00) 11.2 9.72 (14:00) 4.72 (14:00) 1.4 1.2 0 0 0.2
16-03-2020 13.4 (00:00) 3.7 (00:00) 8.5 10.28 (02:40) 5 (02:30) 1.4 0.4 0 0.8 0.2
15-03-2020 21.5 (16:20) 7.5 (00:00) 14.5 8.89 (23:59) 4.44 (23:59) 0 0 0 0 0
14-03-2020 23 (14:20) 7.3 (00:00) 15.2 5.56 (14:10) 2.5 (15:40) 0 0 0 0 0
13-03-2020 24.1 (15:10) 5.3 (07:40) 14.7 6.39 (17:00) 2.78 (15:30) 0 0 0 0 0
12-03-2020 26.8 (15:00) 7.4 (00:00) 17.1 7.5 (15:20) 4.17 (15:20) 0 0 0 0 0
11-03-2020 27.5 (13:50) 5.2 (00:00) 16.3 4.17 (12:30) 1.94 (12:50) 0 0 0 0 0
10-03-2020 26.3 (17:30) 3.9 (00:00) 15.1 5 (17:50) 3.06 (15:00) 0 0 0 0 0
09-03-2020 21 (17:00) 5.5 (00:00) 13.3 7.22 (17:40) 3.89 (16:20) 0 0 0 0 0
08-03-2020 21.8 (16:20) 0.1 (00:00) 10.9 7.5 (17:10) 4.17 (17:20) 0 0 0 0 0
07-03-2020 18.5 (17:10) 1 (00:00) 9.8 7.22 (14:50) 3.61 (15:30) 0 0 0 0 0
06-03-2020 15.9 (16:20) 5.9 (00:00) 10.9 11.94 (15:00) 5.83 (13:00) 0 0 0 0 0
05-03-2020 16.2 (14:50) 4.1 (00:00) 10.2 10.56 (16:30) 5.83 (16:20) 0 0 0 0 0
04-03-2020 18.9 (15:10) 6.8 (00:00) 12.8 10.28 (15:10) 4.44 (15:10) 0 0 0 0 0
03-03-2020 15.8 (16:40) 4.5 (00:00) 10.2 7.22 (12:50) 4.17 (12:50) 0 0 0 0 0
02-03-2020 16.6 (14:40) 6.8 (00:00) 11.7 13.89 (11:20) 7.5 (11:20) 2.4 1.6 0.8 0 0
01-03-2020 16.2 (15:30) 8.1 (00:00) 12.2 9.72 (23:00) 4.17 (23:10) 0 0 0 0 0
29-02-2020 15.8 (13:40) 5.6 (00:00) 10.7 8.61 (15:30) 4.17 (16:20) 0.6 0 0 0 0.6
28-02-2020 22.2 (15:50) 2.2 (00:00) 12.2 6.11 (12:10) 2.78 (12:20) 0 0 0 0 0

Gráficas

Temp. máximas Temp. mínimas Temp. medias Precipitaciones Rachas de viento máximas Velocidades máximas media en intervalos de 10 minutos

Datos horarios

Fecha y hora oficial Temperatura (ºC) Velocidad del viento (km/h) Dirección del viento Racha (km/h) Dirección de racha Precipitación (mm) Presión (hPa) Tendencia (hPa) Humedad (%)
2020-03-28 23:00:00 8.7 2 Este 4 Nordeste 0 -- -- 87
2020-03-28 22:00:00 8.4 0 Calma 4 Este 0 -- -- 85
2020-03-28 21:00:00 9.3 0 Calma 3 Oeste 0 -- -- 79
2020-03-28 20:00:00 12.2 0 Calma 3 Sudoeste 0 -- -- 67
2020-03-28 19:00:00 17 2 Sudoeste 8 Sudoeste 0 -- -- 48
2020-03-28 18:00:00 17.9 4 Sudoeste 9 Oeste 0 -- -- 41
2020-03-28 17:00:00 17.6 4 Sudoeste 11 Sudoeste 0 -- -- 46
2020-03-28 16:00:00 15.9 3 Sudoeste 8 Sudoeste 0 -- -- 50
2020-03-28 15:00:00 15.7 4 Sudoeste 11 Oeste 0 -- -- 52
2020-03-28 14:00:00 15.6 5 Sur 13 Sudoeste 0 -- -- 52
2020-03-28 13:00:00 15.7 5 Sudoeste 13 Sudoeste 0 -- -- 55
2020-03-28 12:00:00 14.8 5 Sudeste 13 Sudeste 0 -- -- 54
2020-03-28 11:00:00 12.3 4 Sudoeste 10 Sur 0 -- -- 68
2020-03-28 10:00:00 8.9 3 Oeste 6 Sudoeste 0 -- -- 76
2020-03-28 09:00:00 5.9 0 Calma 3 Sudoeste 0 -- -- 82
2020-03-28 08:00:00 1.7 0 Calma 4 Noroeste 0 -- -- 95
2020-03-28 07:00:00 1 2 Noroeste 3 Noroeste 0 -- -- 93
2020-03-28 06:00:00 1.3 0 Calma 5 Noroeste 0 -- -- 92
2020-03-28 05:00:00 1.7 0 Calma 2 Norte 0 -- -- 91
2020-03-28 04:00:00 2.4 0 Calma 4 Noroeste 0 -- -- 89
2020-03-28 03:00:00 3.6 0 Calma 4 Noroeste 0 -- -- 86
2020-03-28 02:00:00 5.2 0 Calma 5 Norte 0 -- -- 81
2020-03-28 01:00:00 5.8 0 Calma 10 Nordeste 0 -- -- 78
2020-03-28 00:00:00 6.6 4 Nordeste 13 Nordeste 0 -- -- 74
2020-03-27 23:00:00 7.6 2 Norte 5 Norte 0 -- -- 73
2020-03-27 22:00:00 8.3 3 Nordeste 16 Nordeste 0 -- -- 69
2020-03-27 21:00:00 9.4 3 Norte 13 Nordeste 0 -- -- 67
2020-03-27 20:00:00 10.1 7 Norte 19 Noroeste 0 -- -- 65
2020-03-27 19:00:00 12.3 9 Noroeste 26 Norte 0 -- -- 60
2020-03-27 18:00:00 13.5 12 Noroeste 23 Noroeste 0 -- -- 59
2020-03-27 17:00:00 13.4 8 Noroeste 24 Norte 0 -- -- 61
2020-03-27 16:00:00 14.7 6 Oeste 15 Oeste 0 -- -- 59
2020-03-27 15:00:00 15.9 7 Sudoeste 15 Oeste 0 -- -- 54
2020-03-27 14:00:00 15.3 7 Sudoeste 15 Sur 0 -- -- 55
2020-03-27 13:00:00 13 2 Sur 14 Sudoeste 0 -- -- 60
2020-03-27 12:00:00 12.8 7 Sudoeste 17 Sur 0 -- -- 61
2020-03-27 11:00:00 11.5 6 Sur 21 Sudoeste 0 -- -- 70
2020-03-27 10:00:00 8 4 Sudoeste 8 Noroeste 0 -- -- 95
2020-03-27 09:00:00 6.7 5 Noroeste 9 Noroeste 0 -- -- 96
2020-03-27 08:00:00 6.8 0 Calma 6 Sudeste 0 -- -- 96
2020-03-27 07:00:00 6.4 0 Calma 4 Este 0 -- -- 95
2020-03-27 06:00:00 4.7 0 Calma 3 Sudeste 0 -- -- 92
2020-03-27 05:00:00 5.4 0 Calma 4 Noroeste 0 -- -- 92
2020-03-27 04:00:00 6 0 Calma 5 Norte 0 -- -- 90
2020-03-27 03:00:00 7.6 3 Norte 6 Noroeste 0 -- -- 85
2020-03-27 02:00:00 9.8 3 Norte 10 Norte 0 -- -- 80
2020-03-27 01:00:00 10.5 4 Noroeste 13 Noroeste 0 -- -- 78
2020-03-27 00:00:00 9.5 4 Noroeste 8 Norte 0 -- -- 79
2020-03-26 23:00:00 10.3 0 Calma 9 Norte 0 -- -- 70
2020-03-26 22:00:00 12.8 4 Noroeste 9 Noroeste 0 -- -- 58
2020-03-26 21:00:00 13.6 5 Noroeste 13 Noroeste 0 -- -- 55
2020-03-26 20:00:00 15.8 6 Noroeste 21 Oeste 0 -- -- 51
2020-03-26 19:00:00 18.1 10 Noroeste 30 Oeste 0 -- -- 44
2020-03-26 18:00:00 19.3 16 Noroeste 34 Noroeste 0 -- -- 36
2020-03-26 17:00:00 19.7 18 Noroeste 37 Noroeste 0 -- -- 32
2020-03-26 16:00:00 19.8 19 Noroeste 39 Noroeste 0 -- -- 33
2020-03-26 15:00:00 20.1 14 Noroeste 33 Noroeste 0 -- -- 39
2020-03-26 14:00:00 19.1 15 Noroeste 31 Noroeste 0 -- -- 45
2020-03-26 13:00:00 18.1 13 Oeste 27 Noroeste 0 -- -- 45
2020-03-26 12:00:00 16.1 10 Noroeste 23 Noroeste 0 -- -- 60
2020-03-26 11:00:00 14.6 5 Noroeste 15 Oeste 0 -- -- 71
2020-03-26 10:00:00 12.4 5 Noroeste 10 Noroeste 0 -- -- 84
2020-03-26 09:00:00 10.8 5 Noroeste 9 Noroeste 0 -- -- 93
2020-03-26 08:00:00 9.6 0 Calma 4 Norte 0 -- -- 95
2020-03-26 07:00:00 9 0 Calma 4 Este 0 -- -- 92
2020-03-26 06:00:00 10.3 2 Este 6 Sur 0 -- -- 94
2020-03-26 05:00:00 10.6 0 Calma 2 Nordeste 0 -- -- 94
2020-03-26 04:00:00 10.4 2 Nordeste 4 Este 0.2 -- -- 94
2020-03-26 03:00:00 10.4 0 Calma 8 Sudeste 1.4 -- -- 93
2020-03-26 02:00:00 10.6 4 Este 11 Norte 1.8 -- -- 91
2020-03-26 01:00:00 10.2 0 Calma 3 Este 0 -- -- 93
2020-03-26 00:00:00 9.2 0 Calma 4 Este 0 -- -- 92
2020-03-25 23:00:00 9.6 0 Calma 4 Sudeste 0 -- -- 88
2020-03-25 22:00:00 11.3 3 Este 9 Sur 0 -- -- 83
2020-03-25 21:00:00 12.9 5 Sudeste 15 Sur 0 -- -- 78
2020-03-25 20:00:00 14.5 3 Sudeste 15 Sudoeste 0 -- -- 70
2020-03-25 19:00:00 16.8 3 Sur 16 Sudoeste 0 -- -- 59
2020-03-25 18:00:00 18.2 8 Sudoeste 18 Sur 0 -- -- 52
2020-03-25 17:00:00 18.7 9 Noroeste 20 Noroeste 0 -- -- 37
2020-03-25 16:00:00 18.4 8 Noroeste 19 Noroeste 0 -- -- 42
2020-03-25 15:00:00 17.7 5 Noroeste 18 Oeste 0 -- -- 43
2020-03-25 14:00:00 17.4 8 Oeste 15 Sudoeste 0 -- -- 47
2020-03-25 13:00:00 16.9 5 Sur 12 Sudoeste 0 -- -- 47
2020-03-25 12:00:00 16 6 Sudoeste 12 Sudoeste 0 -- -- 47
2020-03-25 11:00:00 14.3 5 Sudoeste 9 Sudoeste 0 -- -- 61
2020-03-25 10:00:00 12.4 4 Oeste 9 Sudoeste 0 -- -- 69
2020-03-25 09:00:00 10.4 0 Calma 4 Este 0 -- -- 76
2020-03-25 08:00:00 7.7 0 Calma 4 Noroeste 0 -- -- 89
2020-03-25 07:00:00 7.4 0 Calma 6 Noroeste 0 -- -- 89
2020-03-25 06:00:00 7.2 4 Noroeste 7 Noroeste 0 -- -- 88
2020-03-25 05:00:00 8.1 3 Noroeste 7 Oeste 0 -- -- 85
2020-03-25 04:00:00 7.8 0 Calma 6 Norte 0 -- -- 86
2020-03-25 03:00:00 9.1 2 Oeste 6 Norte 0 -- -- 79
2020-03-25 02:00:00 9.1 2 Sudoeste 8 Sur 0 -- -- 80
2020-03-25 01:00:00 8.4 2 Nordeste 7 Nordeste 0 -- -- 83
2020-03-25 00:00:00 10.6 0 Calma 13 Nordeste 0 -- -- 75
2020-03-24 23:00:00 10 3 Norte 13 Nordeste 0 -- -- 76
2020-03-24 22:00:00 12.3 3 Nordeste 20 Nordeste 0 -- -- 67
2020-03-24 21:00:00 13.5 9 Nordeste 21 Nordeste 0 -- -- 64
2020-03-24 20:00:00 15.1 9 Este 17 Este 0 -- -- 58
2020-03-24 19:00:00 17.2 9 Este 19 Este 0 -- -- 51
2020-03-24 18:00:00 18 9 Este 22 Este 0 -- -- 49
2020-03-24 17:00:00 17.7 7 Este 23 Este 0 -- -- 50
2020-03-24 16:00:00 17.9 9 Este 25 Este 0 -- -- 50
2020-03-24 15:00:00 18.2 6 Sudeste 23 Sudeste 0 -- -- 50
2020-03-24 14:00:00 17.8 7 Sudeste 25 Este 0 -- -- 50
2020-03-24 13:00:00 16.4 10 Este 29 Nordeste 0 -- -- 55
2020-03-24 12:00:00 15.1 12 Este 30 Este 0 -- -- 58
2020-03-24 11:00:00 14.4 7 Este 27 Este 0 -- -- 61
2020-03-24 10:00:00 13.1 6 Este 24 Este 0.2 -- -- 66
2020-03-24 09:00:00 10.2 5 Sudeste 13 Este 0 -- -- 81
2020-03-24 08:00:00 7.3 0 Calma 14 Norte 0 -- -- 91
2020-03-24 07:00:00 6.5 0 Calma 10 Nordeste 0 -- -- 92
2020-03-24 06:00:00 5.9 3 Nordeste 10 Este 0 -- -- 95
2020-03-24 05:00:00 5.6 3 Norte 6 Noroeste 0 -- -- 94
2020-03-24 04:00:00 6.3 3 Norte 7 Nordeste 0 -- -- 93
2020-03-24 03:00:00 7.2 6 Noroeste 10 Nordeste 0 -- -- 94
2020-03-24 02:00:00 7.8 3 Norte 5 Noroeste 0 -- -- 93
2020-03-24 01:00:00 8.5 0 Calma 3 Este 0 -- -- 94
2020-03-24 00:00:00 8.6 2 Noroeste 4 Norte 0 -- -- 93
2020-03-23 23:00:00 9 2 Nordeste 4 Nordeste 0 -- -- 90
2020-03-23 22:00:00 9.5 0 Calma 10 Nordeste 0 -- -- 88
2020-03-23 21:00:00 9.5 2 Este 5 Este 0 -- -- 89
2020-03-23 20:00:00 9.8 0 Calma 34 Sudeste 1.6 -- -- 88
2020-03-23 19:00:00 13.5 14 Sudeste 42 Sudeste 0 -- -- 65
2020-03-23 18:00:00 15.8 5 Sudeste 17 Sur 0 -- -- 46
2020-03-23 17:00:00 16.1 5 Sudeste 28 Sudeste 0 -- -- 46
2020-03-23 16:00:00 15.7 6 Este 22 Este 0 -- -- 46
2020-03-23 15:00:00 14.8 4 Sudoeste 21 Este 0 -- -- 57
2020-03-23 14:00:00 15.4 11 Este 26 Este 0 -- -- 52
2020-03-23 13:00:00 15.1 12 Este 28 Sudeste 0 -- -- 53
2020-03-23 12:00:00 14.1 10 Sudeste 23 Este 0 -- -- 60
2020-03-23 11:00:00 12.2 9 Sudeste 24 Este 0 -- -- 72
2020-03-23 10:00:00 11.3 2 Sudeste 6 Sudoeste 0 -- -- 82
2020-03-23 09:00:00 9.9 0 Calma 7 Sudoeste 0 -- -- 88
2020-03-23 08:00:00 7.9 0 Calma 2 Este 0 -- -- 96
2020-03-23 07:00:00 7.4 0 Calma 9 Este 0 -- -- 95
2020-03-23 06:00:00 6.2 2 Este 4 Este 0 -- -- 93
2020-03-23 05:00:00 7.7 0 Calma 2 Norte 0 -- -- 95
2020-03-23 04:00:00 8 2 Norte 5 Norte 0 -- -- 95
2020-03-23 03:00:00 8.2 0 Calma 0 Calma 0.2 -- -- 95
2020-03-23 02:00:00 8.1 0 Calma 2 Nordeste 0 -- -- 95
2020-03-23 01:00:00 8.1 0 Calma 3 Este 0 -- -- 95
2020-03-23 00:00:00 7.6 0 Calma 5 Norte 0 -- -- 95
2020-03-22 23:00:00 7.2 0 Calma 4 Norte 0 -- -- 93
2020-03-22 22:00:00 8.3 2 Norte 3 Norte 0 -- -- 93
2020-03-22 21:00:00 8.6 0 Calma 0 Calma 0 -- -- 93
2020-03-22 20:00:00 8.6 0 Calma 4 Norte 0 -- -- 92
2020-03-22 19:00:00 9.7 2 Este 4 Este 0 -- -- 85
2020-03-22 18:00:00 9.2 0 Calma 14 Este 1.2 -- -- 86
2020-03-22 17:00:00 9.4 12 Este 26 Este 2.2 -- -- 79
2020-03-22 16:00:00 13.7 5 Sudoeste 11 Sudoeste 0 -- -- 60
2020-03-22 15:00:00 11.1 2 Sudoeste 12 Noroeste 1.6 -- -- 78
2020-03-22 14:00:00 11.5 6 Noroeste 13 Sudoeste 0 -- -- 74
2020-03-22 13:00:00 10.9 2 Sur 9 Sudoeste 0.2 -- -- 74
2020-03-22 12:00:00 8.8 0 Calma 5 Sudoeste 0.8 -- -- 88
2020-03-22 11:00:00 8.7 0 Calma 3 Noroeste 0 -- -- 87
2020-03-22 10:00:00 7.4 2 Oeste 3 Oeste 1.8 -- -- 90
2020-03-22 09:00:00 7.1 0 Calma 2 Nordeste 1.2 -- -- 95
2020-03-22 08:00:00 6.7 2 Nordeste 4 Este 0.2 -- -- 95
2020-03-22 07:00:00 6.1 0 Calma 5 Este 0 -- -- 95
2020-03-22 06:00:00 6.4 0 Calma 4 Norte 0 -- -- 95
2020-03-22 05:00:00 6.1 0 Calma 11 Sudeste 0 -- -- 93
2020-03-22 04:00:00 6.8 3 Sudeste 9 Este 0.2 -- -- 94
2020-03-22 03:00:00 6.4 3 Este 6 Este 0 -- -- 95
2020-03-22 02:00:00 5.3 0 Calma 5 Este 0 -- -- 94
2020-03-22 01:00:00 5.8 3 Sudeste 6 Este 0 -- -- 91
2020-03-22 00:00:00 7.1 4 Este 15 Sudeste 0 -- -- 91
2020-03-21 23:00:00 7.1 3 Sudeste 18 Sudeste 0 -- -- 91
2020-03-21 22:00:00 6.7 5 Este 16 Este 0 -- -- 91
2020-03-21 21:00:00 7.4 9 Sudeste 17 Sudeste 0 -- -- 88
2020-03-21 20:00:00 7.8 8 Sudeste 18 Sudeste 1.8 -- -- 87
2020-03-21 19:00:00 9.6 9 Sudeste 19 Este 0 -- -- 84
2020-03-21 18:00:00 9.2 7 Sudeste 19 Sudeste 0.4 -- -- 85
2020-03-21 17:00:00 9.8 6 Sur 14 Sur 0.2 -- -- 83
2020-03-21 16:00:00 10.1 4 Sur 32 Sudoeste 1.6 -- -- 85
2020-03-21 15:00:00 13.3 8 Sudeste 22 Sudeste 0 -- -- 66
2020-03-21 14:00:00 13.6 5 Sur 18 Sur 0 -- -- 61
2020-03-21 13:00:00 12 4 Sudoeste 21 Sur 0 -- -- 70
2020-03-21 12:00:00 11.9 7 Sudoeste 18 Sur 0 -- -- 72
2020-03-21 11:00:00 10.3 6 Sur 18 Sudeste 0 -- -- 76
2020-03-21 10:00:00 9.5 5 Sur 17 Sur 0 -- -- 81
2020-03-21 09:00:00 8.8 5 Sur 11 Sudoeste 0 -- -- 87
2020-03-21 08:00:00 8.2 2 Sudeste 9 Sudeste 0 -- -- 92
2020-03-21 07:00:00 8 5 Sudeste 12 Este 0 -- -- 91
2020-03-21 06:00:00 8 0 Calma 8 Este 0.6 -- -- 89
2020-03-21 05:00:00 8.5 3 Sudoeste 38 Sudoeste 1.8 -- -- 87
2020-03-21 04:00:00 10.4 10 Sudoeste 27 Sur 4 -- -- 87
2020-03-21 03:00:00 11.4 5 Sur 13 Sur 1.2 -- -- 89
2020-03-21 02:00:00 11.5 5 Sudeste 21 Sudeste 0.6 -- -- 88
2020-03-21 01:00:00 11.5 4 Sudeste 16 Este 1.2 -- -- 87
2020-03-21 00:00:00 12.6 5 Sur 22 Sur 0.2 -- -- 79
2020-03-20 23:00:00 12.8 8 Sur 27 Sudeste 0 -- -- 75
2020-03-20 22:00:00 13.1 8 Sudeste 21 Sudeste 0 -- -- 71
2020-03-20 21:00:00 11 3 Sudeste 6 Este 0 -- -- 81
2020-03-20 20:00:00 13.4 3 Este 7 Este 0 -- -- 72
2020-03-20 19:00:00 15.8 4 Sudeste 10 Este 0 -- -- 65
2020-03-20 18:00:00 16.4 6 Sudeste 14 Sudeste 0 -- -- 61
2020-03-20 17:00:00 17.4 5 Sudeste 22 Sudeste 0 -- -- 59
2020-03-20 16:00:00 16.9 5 Sudeste 17 Sur 0 -- -- 62
2020-03-20 15:00:00 14.6 3 Sudeste 14 Sur 0 -- -- 76
2020-03-20 14:00:00 16.2 5 Sur 19 Sur 0 -- -- 61
2020-03-20 13:00:00 16.5 5 Sudeste 19 Sur 0 -- -- 60
2020-03-20 12:00:00 15.9 7 Este 18 Sudeste 0 -- -- 63
2020-03-20 11:00:00 14.7 8 Sudeste 16 Sudeste 0 -- -- 71
2020-03-20 10:00:00 13.1 6 Sudeste 11 Sudeste 0 -- -- 80
2020-03-20 09:00:00 11.6 3 Sudeste 6 Sudeste 0 -- -- 86
2020-03-20 08:00:00 10.1 0 Calma 6 Este 0 -- -- 88
2020-03-20 07:00:00 10.1 3 Este 5 Sudeste 0 -- -- 87
2020-03-20 06:00:00 11.4 4 Este 11 Sur 0 -- -- 83
2020-03-20 05:00:00 11.7 4 Sudeste 12 Este 0 -- -- 82
2020-03-20 04:00:00 11.2 3 Este 9 Este 0 -- -- 85
2020-03-20 03:00:00 11 2 Este 5 Nordeste 0 -- -- 86
2020-03-20 02:00:00 10.7 0 Calma 6 Sudeste 0 -- -- 85
2020-03-20 01:00:00 11 3 Sudeste 8 Este 0 -- -- 83
2020-03-20 00:00:00 10.6 3 Este 6 Este 0 -- -- 85
2020-03-19 23:00:00 9.8 0 Calma 3 Nordeste 0 -- -- 85
2020-03-19 22:00:00 10.9 0 Calma 4 Norte 0 -- -- 80
2020-03-19 21:00:00 12.1 0 Calma 5 Sudoeste 0 -- -- 74
2020-03-19 20:00:00 14.6 3 Este 5 Este 0 -- -- 65
2020-03-19 19:00:00 17.5 0 Calma 12 Sudeste 0 -- -- 58
2020-03-19 18:00:00 18.5 4 Sudeste 21 Sudeste 0 -- -- 49
2020-03-19 17:00:00 20.3 6 Sudeste 14 Sur 0 -- -- 46
2020-03-19 16:00:00 19.7 7 Nordeste 18 Este 0 -- -- 47
2020-03-19 15:00:00 17.9 6 Sudeste 15 Sudeste 0 -- -- 51
2020-03-19 14:00:00 17.3 7 Este 18 Sudeste 0 -- -- 53
2020-03-19 13:00:00 16.7 6 Sudeste 18 Este 0 -- -- 54
2020-03-19 12:00:00 14.5 3 Norte 8 Nordeste 0 -- -- 63
2020-03-19 11:00:00 12.6 2 Oeste 7 Sur 0 -- -- 73
2020-03-19 10:00:00 11.2 0 Calma 4 Este 0 -- -- 76
2020-03-19 09:00:00 8.5 0 Calma 5 Noroeste 0 -- -- 88
2020-03-19 08:00:00 6.3 4 Norte 6 Noroeste 0 -- -- 94
2020-03-19 07:00:00 6.3 3 Norte 4 Norte 0 -- -- 92
2020-03-19 06:00:00 6.7 2 Sudeste 4 Noroeste 0 -- -- 91
2020-03-19 05:00:00 7.1 0 Calma 4 Norte 0 -- -- 90
2020-03-19 04:00:00 7.6 0 Calma 4 Nordeste 0 -- -- 88
2020-03-19 03:00:00 8.2 0 Calma 4 Este 0 -- -- 86
2020-03-19 02:00:00 9.1 0 Calma 7 Nordeste 0 -- -- 84
2020-03-19 01:00:00 9.4 2 Nordeste 4 Nordeste 0 -- -- 81
2020-03-19 00:00:00 11.5 0 Calma 8 Este 0 -- -- 72
2020-03-18 23:00:00 15.1 5 Este 17 Este 0 -- -- 58
2020-03-18 22:00:00 14.1 0 Calma 13 Nordeste 0 -- -- 63
2020-03-18 21:00:00 16 3 Sudoeste 12 Nordeste 0 -- -- 59
2020-03-18 20:00:00 17 4 Este 14 Nordeste 0 -- -- 51
2020-03-18 19:00:00 19.8 8 Este 18 Este 0 -- -- 43
2020-03-18 18:00:00 21 9 Sudeste 22 Sudeste 0 -- -- 41
2020-03-18 17:00:00 21.6 10 Sudeste 27 Este 0 -- -- 39
2020-03-18 16:00:00 21.6 11 Sudeste 27 Sur 0 -- -- 39
2020-03-18 15:00:00 21.3 11 Sudeste 29 Este 0 -- -- 40
2020-03-18 14:00:00 20.4 10 Sudeste 28 Este 0 -- -- 43
2020-03-18 13:00:00 19.3 9 Sudeste 25 Este 0 -- -- 46
2020-03-18 12:00:00 17.2 5 Sudeste 23 Sudeste 0 -- -- 54
2020-03-18 11:00:00 15.3 11 Sudeste 25 Este 0 -- -- 58
2020-03-18 10:00:00 14.9 6 Sudeste 33 Sudeste 0 -- -- 60
2020-03-18 09:00:00 13.9 9 Sudeste 35 Este 0 -- -- 61
2020-03-18 08:00:00 13.5 18 Este 43 Este 0 -- -- 63
2020-03-18 07:00:00 13.4 9 Sudeste 37 Nordeste 0 -- -- 64
2020-03-18 06:00:00 13.6 13 Este 28 Sudeste 0 -- -- 64
2020-03-18 05:00:00 13.4 10 Este 26 Este 0 -- -- 66
2020-03-18 04:00:00 12.3 6 Este 21 Este 0 -- -- 73
2020-03-18 03:00:00 11.2 0 Calma 14 Este 0 -- -- 78
2020-03-18 02:00:00 10.1 0 Calma 7 Noroeste 0 -- -- 81
2020-03-18 01:00:00 14 6 Este 20 Este 0 -- -- 68
2020-03-18 00:00:00 13.4 6 Nordeste 20 Este 0 -- -- 69
2020-03-17 23:00:00 13.9 9 Este 23 Este 0 -- -- 65
2020-03-17 22:00:00 13.1 8 Este 16 Nordeste 0 -- -- 65
2020-03-17 21:00:00 13.2 7 Este 21 Este 0 -- -- 62
2020-03-17 20:00:00 11.8 0 Calma 9 Este 0 -- -- 74
2020-03-17 19:00:00 14.5 6 Este 17 Sudeste 0.2 -- -- 60
2020-03-17 18:00:00 16.7 9 Sudeste 23 Este 0 -- -- 40
2020-03-17 17:00:00 16.1 12 Este 27 Este 0 -- -- 39
2020-03-17 16:00:00 16.9 8 Este 23 Este 0 -- -- 38
2020-03-17 15:00:00 15.3 9 Sudeste 30 Este 0 -- -- 41
2020-03-17 14:00:00 15.6 17 Este 35 Este 0 -- -- 38
2020-03-17 13:00:00 14.2 9 Este 24 Este 0 -- -- 49
2020-03-17 12:00:00 13.1 12 Este 24 Nordeste 0 -- -- 53
2020-03-17 11:00:00 11.4 13 Este 27 Este 0 -- -- 59
2020-03-17 10:00:00 8.6 2 Sudeste 13 Este 0 -- -- 78
2020-03-17 09:00:00 6.7 3 Noroeste 6 Noroeste 0 -- -- 89
2020-03-17 08:00:00 5.7 2 Norte 6 Este 0 -- -- 92
2020-03-17 07:00:00 5.5 3 Este 6 Sudeste 0 -- -- 92
2020-03-17 06:00:00 5.5 0 Calma 6 Sudeste 0.2 -- -- 91
2020-03-17 05:00:00 5.4 2 Sudeste 17 Sudeste 0.4 -- -- 90
2020-03-17 04:00:00 5.6 8 Este 18 Este 0 -- -- 89
2020-03-17 03:00:00 5.6 5 Este 16 Este 0.6 -- -- 89
2020-03-17 02:00:00 5.8 4 Sudeste 11 Este 0 -- -- 87
2020-03-17 01:00:00 5.5 2 Sudeste 4 Este 0 -- -- 88
2020-03-17 00:00:00 5.2 0 Calma 4 Este 0 -- -- 90
2020-03-16 23:00:00 4.9 0 Calma 6 Norte 0 -- -- 89
2020-03-16 22:00:00 5.2 4 Norte 5 Norte 0 -- -- 87
2020-03-16 21:00:00 5.7 3 Norte 5 Norte 0 -- -- 87
2020-03-16 20:00:00 6.3 0 Calma 27 Noroeste 0.2 -- -- 84
2020-03-16 19:00:00 7.7 2 Noroeste 19 Noroeste 0 -- -- 76
2020-03-16 18:00:00 7.7 8 Oeste 28 Oeste 0 -- -- 76
2020-03-16 17:00:00 8 5 Noroeste 18 Noroeste 0.4 -- -- 74
2020-03-16 16:00:00 7.4 2 Noroeste 18 Sudoeste 0.4 -- -- 78
2020-03-16 15:00:00 8 4 Noroeste 20 Noroeste 0 -- -- 65
2020-03-16 14:00:00 8.6 10 Noroeste 23 Oeste 0 -- -- 56
2020-03-16 13:00:00 8.7 9 Noroeste 22 Noroeste 0 -- -- 55
2020-03-16 12:00:00 8.3 9 Noroeste 25 Noroeste 0 -- -- 59
2020-03-16 11:00:00 8.3 9 Noroeste 31 Noroeste 0 -- -- 61
2020-03-16 10:00:00 7 15 Noroeste 27 Oeste 0 -- -- 66
2020-03-16 09:00:00 5.7 10 Noroeste 29 Noroeste 0 -- -- 70
2020-03-16 08:00:00 4 11 Noroeste 29 Oeste 0 -- -- 77
2020-03-16 07:00:00 3.8 7 Noroeste 22 Norte 0 -- -- 77
2020-03-16 06:00:00 4.4 12 Noroeste 29 Noroeste 0 -- -- 77
2020-03-16 05:00:00 5.8 12 Noroeste 34 Noroeste 0.4 -- -- 75
2020-03-16 04:00:00 6.5 8 Noroeste 32 Oeste 0 -- -- 81
2020-03-16 03:00:00 8.8 15 Noroeste 37 Noroeste 0 -- -- 72
2020-03-16 02:00:00 10.5 15 Noroeste 31 Noroeste 0 -- -- 74
2020-03-16 01:00:00 11.7 13 Noroeste 31 Noroeste 0 -- -- 72
2020-03-16 00:00:00 13.4 16 Noroeste 32 Noroeste 0 -- -- 67
2020-03-15 23:00:00 15.8 5 Noroeste 16 Oeste 0 -- -- 68
2020-03-15 22:00:00 15.9 4 Oeste 10 Oeste 0 -- -- 68
2020-03-15 21:00:00 15.8 4 Sur 10 Sur 0 -- -- 68
2020-03-15 20:00:00 17.3 3 Sudoeste 14 Sudoeste 0 -- -- 61
2020-03-15 19:00:00 18.7 5 Sudoeste 26 Sur 0 -- -- 56
2020-03-15 18:00:00 20.8 8 Sur 25 Sur 0 -- -- 51
2020-03-15 17:00:00 21.1 9 Sur 24 Sur 0 -- -- 50
2020-03-15 16:00:00 21.4 9 Sur 23 Sur 0 -- -- 51
2020-03-15 15:00:00 21.3 9 Sur 20 Sur 0 -- -- 52
2020-03-15 14:00:00 21.3 8 Sur 14 Sur 0 -- -- 48
2020-03-15 13:00:00 19.3 6 Sudeste 17 Sur 0 -- -- 53
2020-03-15 12:00:00 18 5 Sur 18 Sur 0 -- -- 61
2020-03-15 11:00:00 15.7 5 Sudeste 14 Sudeste 0 -- -- 70
2020-03-15 10:00:00 12 2 Sur 5 Sur 0 -- -- 97
2020-03-15 09:00:00 10.1 0 Calma 2 Sudeste 0 -- -- 96
2020-03-15 08:00:00 8.8 0 Calma 4 Norte 0 -- -- 96
2020-03-15 07:00:00 8.7 0 Calma 3 Noroeste 0 -- -- 96
2020-03-15 06:00:00 7.6 0 Calma 2 Nordeste 0 -- -- 94
2020-03-15 05:00:00 8.1 0 Calma 0 Calma 0 -- -- 94
2020-03-15 04:00:00 8.4 0 Calma 3 Este 0 -- -- 93
2020-03-15 03:00:00 8.9 2 Nordeste 3 Nordeste 0 -- -- 93
2020-03-15 02:00:00 9.3 0 Calma 3 Este 0 -- -- 92
2020-03-15 01:00:00 10.1 0 Calma 2 Noroeste 0 -- -- 90
2020-03-15 00:00:00 10.8 0 Calma 2 Nordeste 0 -- -- 89
2020-03-14 23:00:00 11.7 0 Calma 3 Noroeste 0 -- -- 84
2020-03-14 22:00:00 13.1 0 Calma 4 Noroeste 0 -- -- 81
2020-03-14 21:00:00 14.3 2 Noroeste 5 Sur 0 -- -- 76
2020-03-14 20:00:00 16.5 0 Calma 6 Sur 0 -- -- 69
2020-03-14 19:00:00 20.3 4 Sur 10 Sudoeste 0 -- -- 56
2020-03-14 18:00:00 21.5 6 Sudoeste 15 Sur 0 -- -- 54
2020-03-14 17:00:00 22.7 6 Sur 15 Sur 0 -- -- 52
2020-03-14 16:00:00 22.7 6 Sur 19 Sudoeste 0 -- -- 52
2020-03-14 15:00:00 22.4 8 Sur 20 Sudeste 0 -- -- 54
2020-03-14 14:00:00 22.9 7 Sur 17 Sur 0 -- -- 54
2020-03-14 13:00:00 21.7 7 Sur 13 Sudoeste 0 -- -- 51
2020-03-14 12:00:00 19.5 3 Sudoeste 9 Sudoeste 0 -- -- 62
2020-03-14 11:00:00 16 2 Sur 5 Sur 0 -- -- 75
2020-03-14 10:00:00 12.2 2 Sur 4 Sur 0 -- -- 96
2020-03-14 09:00:00 9.5 0 Calma 3 Sudeste 0 -- -- 96
2020-03-14 08:00:00 8.6 0 Calma 5 Este 0 -- -- 96
2020-03-14 07:00:00 7.5 0 Calma 3 Nordeste 0 -- -- 94
2020-03-14 06:00:00 7.8 2 Este 3 Este 0 -- -- 94
2020-03-14 05:00:00 8 0 Calma 4 Noroeste 0 -- -- 94
2020-03-14 04:00:00 8.4 0 Calma 3 Este 0 -- -- 94
2020-03-14 03:00:00 8.8 2 Este 3 Este 0 -- -- 93
2020-03-14 02:00:00 9.3 0 Calma 3 Norte 0 -- -- 92
2020-03-14 01:00:00 10.1 0 Calma 2 Nordeste 0 -- -- 92
2020-03-14 00:00:00 10.7 0 Calma 3 Este 0 -- -- 91
2020-03-13 23:00:00 11.6 3 Noroeste 4 Norte 0 -- -- 88
2020-03-13 22:00:00 12.6 0 Calma 5 Norte 0 -- -- 83
2020-03-13 21:00:00 13.9 3 Norte 5 Norte 0 -- -- 79
2020-03-13 20:00:00 16.5 2 Norte 6 Sudeste 0 -- -- 70
2020-03-13 19:00:00 20 2 Sur 14 Sudoeste 0 -- -- 58
2020-03-13 18:00:00 21.8 5 Sur 19 Sur 0 -- -- 53
2020-03-13 17:00:00 22.8 9 Sur 23 Sur 0 -- -- 51
2020-03-13 16:00:00 23.4 10 Sur 22 Sur 0 -- -- 50
2020-03-13 15:00:00 23.9 7 Sur 16 Sur 0 -- -- 48
2020-03-13 14:00:00 23 7 Sur 17 Sur 0 -- -- 47
2020-03-13 13:00:00 21.7 5 Sudeste 12 Sudeste 0 -- -- 49
2020-03-13 12:00:00 19.9 3 Sudoeste 9 Sudoeste 0 -- -- 53
2020-03-13 11:00:00 16.1 3 Sudoeste 5 Sur 0 -- -- 68
2020-03-13 10:00:00 12.1 3 Sudoeste 5 Sudoeste 0 -- -- 81
2020-03-13 09:00:00 9 0 Calma 2 Norte 0 -- -- 96
2020-03-13 08:00:00 5.4 2 Este 2 Este 0 -- -- 94
2020-03-13 07:00:00 5.7 0 Calma 3 Sudeste 0 -- -- 94
2020-03-13 06:00:00 6 0 Calma 2 Este 0 -- -- 93
2020-03-13 05:00:00 6.4 0 Calma 2 Nordeste 0 -- -- 93
2020-03-13 04:00:00 6.9 0 Calma 3 Noroeste 0 -- -- 92
2020-03-13 03:00:00 7.6 3 Sudeste 4 Sudeste 0 -- -- 92
2020-03-13 02:00:00 8.3 2 Noroeste 5 Noroeste 0 -- -- 90
2020-03-13 01:00:00 9.2 4 Este 6 Sudeste 0 -- -- 89
2020-03-13 00:00:00 10.1 0 Calma 3 Este 0 -- -- 85
2020-03-12 23:00:00 11.6 0 Calma 4 Sudeste 0 -- -- 78
2020-03-12 22:00:00 13.4 2 Noroeste 5 Norte 0 -- -- 70
2020-03-12 21:00:00 15.4 0 Calma 10 Oeste 0 -- -- 64
2020-03-12 20:00:00 18.1 3 Oeste 11 Sudoeste 0 -- -- 51
2020-03-12 19:00:00 22.4 5 Sudoeste 17 Sudoeste 0 -- -- 37
2020-03-12 18:00:00 24.7 9 Sudoeste 25 Sudoeste 0 -- -- 33
2020-03-12 17:00:00 26 10 Sudoeste 24 Sudoeste 0 -- -- 29
2020-03-12 16:00:00 26.2 9 Sudoeste 27 Oeste 0 -- -- 31
2020-03-12 15:00:00 26.8 8 Sur 21 Sur 0 -- -- 30
2020-03-12 14:00:00 26.5 10 Sur 23 Sur 0 -- -- 30
2020-03-12 13:00:00 25.8 9 Sur 22 Sur 0 -- -- 31
2020-03-12 12:00:00 24.3 8 Sur 21 Sur 0 -- -- 34
2020-03-12 11:00:00 21.7 5 Sur 9 Sur 0 -- -- 44
2020-03-12 10:00:00 14.9 0 Calma 4 Sudoeste 0 -- -- 77
2020-03-12 09:00:00 11.2 0 Calma 3 Este 0 -- -- 94
2020-03-12 08:00:00 7.8 0 Calma 4 Sudoeste 0 -- -- 95
2020-03-12 07:00:00 7.6 0 Calma 5 Nordeste 0 -- -- 94
2020-03-12 06:00:00 7.6 2 Este 4 Este 0 -- -- 94
2020-03-12 05:00:00 7.5 0 Calma 3 Este 0 -- -- 93
2020-03-12 04:00:00 7.9 2 Sudeste 2 Este 0 -- -- 92
2020-03-12 03:00:00 8.4 0 Calma 0 Calma 0 -- -- 92
2020-03-12 02:00:00 8.7 0 Calma 2 Nordeste 0 -- -- 90
2020-03-12 01:00:00 9.4 0 Calma 2 Este 0 -- -- 88
2020-03-12 00:00:00 10.2 0 Calma 2 Noroeste 0 -- -- 85
2020-03-11 23:00:00 11.4 0 Calma 2 Sudoeste 0 -- -- 81
2020-03-11 22:00:00 12.8 0 Calma 5 Sudoeste 0 -- -- 73
2020-03-11 21:00:00 15.1 0 Calma 6 Sudoeste 0 -- -- 65
2020-03-11 20:00:00 17.7 0 Calma 2 Norte 0 -- -- 57
2020-03-11 19:00:00 23.6 0 Calma 3 Sudoeste 0 -- -- 45
2020-03-11 18:00:00 26.8 0 Calma 5 Sur 0 -- -- 34
2020-03-11 17:00:00 27.4 3 Sur 8 Sudeste 0 -- -- 29
2020-03-11 16:00:00 26.6 5 Sur 11 Sudoeste 0 -- -- 31
2020-03-11 15:00:00 27.5 5 Sur 14 Sur 0 -- -- 31
2020-03-11 14:00:00 27.4 6 Sudoeste 15 Sudeste 0 -- -- 28
2020-03-11 13:00:00 26 6 Sur 15 Sudeste 0 -- -- 33
2020-03-11 12:00:00 22.7 4 Sudoeste 8 Sudoeste 0 -- -- 44
2020-03-11 11:00:00 17.8 0 Calma 4 Sur 0 -- -- 59
2020-03-11 10:00:00 12.8 2 Sur 4 Sudoeste 0 -- -- 77
2020-03-11 09:00:00 9.4 0 Calma 2 Sur 0 -- -- 95
2020-03-11 08:00:00 5.3 0 Calma 3 Noroeste 0 -- -- 94
2020-03-11 07:00:00 5.4 0 Calma 3 Noroeste 0 -- -- 93
2020-03-11 06:00:00 5.8 0 Calma 3 Este 0 -- -- 93
2020-03-11 05:00:00 6.3 0 Calma 4 Noroeste 0 -- -- 92
2020-03-11 04:00:00 6.5 2 Este 4 Este 0 -- -- 91
2020-03-11 03:00:00 7.3 2 Sudeste 4 Noroeste 0 -- -- 90
2020-03-11 02:00:00 7.9 0 Calma 4 Este 0 -- -- 88
2020-03-11 01:00:00 8.7 0 Calma 5 Nordeste 0 -- -- 86
2020-03-11 00:00:00 9.6 2 Norte 4 Noroeste 0 -- -- 83
2020-03-10 23:00:00 10.8 0 Calma 5 Este 0 -- -- 79
2020-03-10 22:00:00 12 0 Calma 5 Sudoeste 0 -- -- 72
2020-03-10 21:00:00 14 0 Calma 4 Norte 0 -- -- 64
2020-03-10 20:00:00 18 2 Noroeste 8 Norte 0 -- -- 52
2020-03-10 19:00:00 23.5 6 Norte 17 Noroeste 0 -- -- 38
2020-03-10 18:00:00 25.9 8 Noroeste 18 Oeste 0 -- -- 33
2020-03-10 17:00:00 26 6 Oeste 14 Sudoeste 0 -- -- 33
2020-03-10 16:00:00 25.1 7 Sudoeste 14 Sudoeste 0 -- -- 34
2020-03-10 15:00:00 23.7 11 Sudoeste 16 Sudoeste 0 -- -- 35
2020-03-10 14:00:00 22.6 5 Oeste 11 Sudoeste 0 -- -- 35
2020-03-10 13:00:00 20.7 5 Sudoeste 13 Sudoeste 0 -- -- 38
2020-03-10 12:00:00 18.7 4 Sudoeste 8 Sudoeste 0 -- -- 42
2020-03-10 11:00:00 14.7 3 Sur 6 Sur 0 -- -- 58
2020-03-10 10:00:00 11.5 3 Sur 5 Sur 0 -- -- 67
2020-03-10 09:00:00 7.8 0 Calma 8 Noroeste 0 -- -- 77
2020-03-10 08:00:00 4 2 Este 4 Noroeste 0 -- -- 92
2020-03-10 07:00:00 4.2 0 Calma 6 Sudeste 0 -- -- 90
2020-03-10 06:00:00 4.9 3 Norte 4 Noroeste 0 -- -- 90
2020-03-10 05:00:00 5 0 Calma 3 Este 0 -- -- 87
2020-03-10 04:00:00 6.4 0 Calma 6 Este 0 -- -- 85
2020-03-10 03:00:00 6.8 0 Calma 6 Noroeste 0 -- -- 82
2020-03-10 02:00:00 6.9 3 Este 4 Este 0 -- -- 81
2020-03-10 01:00:00 7.8 2 Norte 4 Noroeste 0 -- -- 75
2020-03-10 00:00:00 9.7 4 Norte 7 Noroeste 0 -- -- 66
2020-03-09 23:00:00 10.4 4 Norte 9 Norte 0 -- -- 63
2020-03-09 22:00:00 13.1 5 Noroeste 16 Norte 0 -- -- 53
2020-03-09 21:00:00 14.4 7 Norte 18 Noroeste 0 -- -- 50
2020-03-09 20:00:00 15.4 5 Norte 10 Norte 0 -- -- 46
2020-03-09 19:00:00 17.9 7 Noroeste 24 Noroeste 0 -- -- 40
2020-03-09 18:00:00 20.2 10 Oeste 26 Noroeste 0 -- -- 34
2020-03-09 17:00:00 21 11 Oeste 22 Oeste 0 -- -- 33
2020-03-09 16:00:00 20.3 13 Oeste 23 Oeste 0 -- -- 36
2020-03-09 15:00:00 19.8 9 Oeste 21 Sudoeste 0 -- -- 36
2020-03-09 14:00:00 18.4 9 Oeste 21 Oeste 0 -- -- 42
2020-03-09 13:00:00 16.3 5 Noroeste 12 Sudoeste 0 -- -- 48
2020-03-09 12:00:00 14.5 4 Sudoeste 10 Sudeste 0 -- -- 54
2020-03-09 11:00:00 12.2 0 Calma 10 Noroeste 0 -- -- 70
2020-03-09 10:00:00 9.4 4 Noroeste 10 Noroeste 0 -- -- 82
2020-03-09 09:00:00 7.5 2 Oeste 9 Noroeste 0 -- -- 93
2020-03-09 08:00:00 5.5 3 Norte 10 Oeste 0 -- -- 91
2020-03-09 07:00:00 7.2 3 Noroeste 18 Noroeste 0 -- -- 88
2020-03-09 06:00:00 8.3 10 Noroeste 23 Noroeste 0 -- -- 85
2020-03-09 05:00:00 7.9 4 Noroeste 20 Noroeste 0 -- -- 86
2020-03-09 04:00:00 6 3 Este 7 Este 0 -- -- 86
2020-03-09 03:00:00 7.4 2 Este 10 Noroeste 0 -- -- 80
2020-03-09 02:00:00 8.8 3 Noroeste 7 Oeste 0 -- -- 74
2020-03-09 01:00:00 10.1 4 Noroeste 18 Noroeste 0 -- -- 69
2020-03-09 00:00:00 9.9 2 Noroeste 10 Oeste 0 -- -- 64
2020-03-08 23:00:00 12.9 5 Noroeste 18 Noroeste 0 -- -- 52
2020-03-08 22:00:00 13.4 0 Calma 9 Noroeste 0 -- -- 47
2020-03-08 21:00:00 13.6 2 Nordeste 6 Noroeste 0 -- -- 45
2020-03-08 20:00:00 16.2 0 Calma 15 Noroeste 0 -- -- 39
2020-03-08 19:00:00 18.2 8 Noroeste 19 Oeste 0 -- -- 35
2020-03-08 18:00:00 20.1 7 Noroeste 27 Oeste 0 -- -- 29
2020-03-08 17:00:00 21.3 12 Noroeste 23 Noroeste 0 -- -- 27
2020-03-08 16:00:00 21.6 8 Oeste 24 Oeste 0 -- -- 28
2020-03-08 15:00:00 21.4 11 Oeste 22 Oeste 0 -- -- 32
2020-03-08 14:00:00 20.2 6 Sur 12 Sur 0 -- -- 34
2020-03-08 13:00:00 18.2 5 Oeste 13 Oeste 0 -- -- 36
2020-03-08 12:00:00 14.8 3 Sur 8 Sur 0 -- -- 49
2020-03-08 11:00:00 10.9 3 Sur 8 Oeste 0 -- -- 67
2020-03-08 10:00:00 7.8 2 Sur 7 Sudeste 0 -- -- 77
2020-03-08 09:00:00 3.7 0 Calma 5 Este 0 -- -- 96
2020-03-08 08:00:00 0.5 0 Calma 6 Noroeste 0 -- -- 94
2020-03-08 07:00:00 0.2 0 Calma 3 Norte 0 -- -- 93
2020-03-08 06:00:00 0.6 0 Calma 4 Norte 0 -- -- 92
2020-03-08 05:00:00 1.3 0 Calma 4 Noroeste 0 -- -- 92
2020-03-08 04:00:00 1.7 0 Calma 3 Sudeste 0 -- -- 91
2020-03-08 03:00:00 2.3 0 Calma 5 Noroeste 0 -- -- 91
2020-03-08 02:00:00 3.1 0 Calma 5 Este 0 -- -- 89
2020-03-08 01:00:00 4 0 Calma 3 Norte 0 -- -- 88
2020-03-08 00:00:00 5 0 Calma 3 Nordeste 0 -- -- 85
2020-03-07 23:00:00 6 0 Calma 5 Nordeste 0 -- -- 77
2020-03-07 22:00:00 7.7 0 Calma 8 Norte 0 -- -- 67
2020-03-07 21:00:00 9.8 0 Calma 10 Nordeste 0 -- -- 59
2020-03-07 20:00:00 11.5 6 Norte 8 Norte 0 -- -- 55
2020-03-07 19:00:00 16.5 4 Norte 21 Norte 0 -- -- 39
2020-03-07 18:00:00 18.1 7 Norte 18 Noroeste 0 -- -- 34
2020-03-07 17:00:00 18.4 4 Oeste 18 Norte 0 -- -- 34
2020-03-07 16:00:00 17.8 8 Norte 24 Norte 0 -- -- 34
2020-03-07 15:00:00 17.6 8 Nordeste 26 Norte 0 -- -- 32
2020-03-07 14:00:00 16.9 9 Norte 19 Norte 0 -- -- 33
2020-03-07 13:00:00 16.3 5 Norte 18 Este 0 -- -- 36
2020-03-07 12:00:00 14 4 Sur 12 Sur 0 -- -- 41
2020-03-07 11:00:00 11.3 3 Oeste 9 Oeste 0 -- -- 53
2020-03-07 10:00:00 8.5 2 Sur 5 Oeste 0 -- -- 65
2020-03-07 09:00:00 4.6 2 Noroeste 4 Noroeste 0 -- -- 77
2020-03-07 08:00:00 1 0 Calma 4 Nordeste 0 -- -- 88
2020-03-07 07:00:00 1.5 0 Calma 5 Noroeste 0 -- -- 85
2020-03-07 06:00:00 2.8 3 Noroeste 10 Noroeste 0 -- -- 80
2020-03-07 05:00:00 2.7 4 Noroeste 8 Noroeste 0 -- -- 79
2020-03-07 04:00:00 3.8 3 Sudeste 9 Noroeste 0 -- -- 74
2020-03-07 03:00:00 4.9 5 Norte 9 Norte 0 -- -- 69
2020-03-07 02:00:00 6.9 0 Calma 13 Norte 0 -- -- 61
2020-03-07 01:00:00 8.5 5 Norte 20 Norte 0 -- -- 56
2020-03-07 00:00:00 9.6 6 Norte 21 Norte 0 -- -- 53
2020-03-06 23:00:00 10.2 8 Norte 22 Noroeste 0 -- -- 52
2020-03-06 22:00:00 10.6 7 Norte 27 Noroeste 0 -- -- 51
2020-03-06 21:00:00 11.1 4 Noroeste 17 Noroeste 0 -- -- 51
2020-03-06 20:00:00 12.2 8 Norte 32 Norte 0 -- -- 47
2020-03-06 19:00:00 13.6 12 Noroeste 31 Norte 0 -- -- 43
2020-03-06 18:00:00 15.1 15 Noroeste 36 Noroeste 0 -- -- 40
2020-03-06 17:00:00 15.5 17 Noroeste 41 Noroeste 0 -- -- 39
2020-03-06 16:00:00 15.8 18 Noroeste 39 Noroeste 0 -- -- 41
2020-03-06 15:00:00 15.3 18 Noroeste 43 Norte 0 -- -- 41
2020-03-06 14:00:00 14.5 18 Noroeste 41 Noroeste 0 -- -- 42
2020-03-06 13:00:00 13.9 21 Noroeste 36 Oeste 0 -- -- 50
2020-03-06 12:00:00 12.9 17 Oeste 35 Noroeste 0 -- -- 58
2020-03-06 11:00:00 11.3 14 Oeste 26 Oeste 0 -- -- 69
2020-03-06 10:00:00 9.7 10 Noroeste 25 Noroeste 0 -- -- 78
2020-03-06 09:00:00 8.6 6 Noroeste 14 Oeste 0 -- -- 83
2020-03-06 08:00:00 7.5 8 Noroeste 14 Noroeste 0 -- -- 87
2020-03-06 07:00:00 6.7 6 Noroeste 16 Noroeste 0 -- -- 88
2020-03-06 06:00:00 6.1 6 Noroeste 12 Noroeste 0 -- -- 88
2020-03-06 05:00:00 6.6 7 Noroeste 17 Noroeste 0 -- -- 86
2020-03-06 04:00:00 7.4 8 Noroeste 26 Noroeste 0 -- -- 83
2020-03-06 03:00:00 7.1 7 Noroeste 17 Noroeste 0 -- -- 85
2020-03-06 02:00:00 7.7 10 Noroeste 20 Noroeste 0 -- -- 81
2020-03-06 01:00:00 8.4 9 Noroeste 19 Noroeste 0 -- -- 77
2020-03-06 00:00:00 9 7 Noroeste 15 Noroeste 0 -- -- 74
2020-03-05 23:00:00 10 7 Noroeste 23 Noroeste 0 -- -- 71
2020-03-05 22:00:00 11.2 14 Noroeste 26 Noroeste 0 -- -- 66
2020-03-05 21:00:00 11.2 8 Noroeste 15 Oeste 0 -- -- 64
2020-03-05 20:00:00 12.7 5 Noroeste 26 Oeste 0 -- -- 58
2020-03-05 19:00:00 14.6 18 Noroeste 34 Noroeste 0 -- -- 52
2020-03-05 18:00:00 16.1 18 Noroeste 35 Noroeste 0 -- -- 48
2020-03-05 17:00:00 16 18 Noroeste 38 Noroeste 0 -- -- 49
2020-03-05 16:00:00 16.1 18 Oeste 35 Oeste 0 -- -- 52
2020-03-05 15:00:00 16.1 18 Noroeste 34 Noroeste 0 -- -- 52
2020-03-05 14:00:00 13.1 12 Oeste 33 Noroeste 0 -- -- 78
2020-03-05 13:00:00 12.9 6 Sudoeste 23 Oeste 0 -- -- 81
2020-03-05 12:00:00 13.6 5 Oeste 21 Oeste 0 -- -- 76
2020-03-05 11:00:00 12.7 5 Sudoeste 19 Sudoeste 0 -- -- 80
2020-03-05 10:00:00 10.2 4 Sur 9 Sudoeste 0 -- -- 89
2020-03-05 09:00:00 7.6 0 Calma 3 Noroeste 0 -- -- 96
2020-03-05 08:00:00 6 0 Calma 3 Este 0 -- -- 94
2020-03-05 07:00:00 6.5 0 Calma 5 Este 0 -- -- 96
2020-03-05 06:00:00 4.4 0 Calma 3 Sudeste 0 -- -- 95
2020-03-05 05:00:00 4.5 0 Calma 2 Nordeste 0 -- -- 94
2020-03-05 04:00:00 4.6 0 Calma 3 Noroeste 0 -- -- 94
2020-03-05 03:00:00 4.9 0 Calma 2 Norte 0 -- -- 93
2020-03-05 02:00:00 5.4 0 Calma 4 Noroeste 0 -- -- 92
2020-03-05 01:00:00 6.1 0 Calma 2 Norte 0 -- -- 91
2020-03-05 00:00:00 6.8 0 Calma 3 Este 0 -- -- 90
2020-03-04 23:00:00 7.6 0 Calma 4 Norte 0 -- -- 86
2020-03-04 22:00:00 8.8 0 Calma 4 Norte 0 -- -- 81
2020-03-04 21:00:00 11.7 3 Norte 14 Noroeste 0 -- -- 68
2020-03-04 20:00:00 14.9 7 Noroeste 20 Noroeste 0 -- -- 59
2020-03-04 19:00:00 15.7 8 Noroeste 22 Noroeste 0 -- -- 60
2020-03-04 18:00:00 16.8 10 Noroeste 28 Noroeste 0 -- -- 55
2020-03-04 17:00:00 18.6 12 Noroeste 27 Noroeste 0 -- -- 53
2020-03-04 16:00:00 18.9 14 Noroeste 37 Noroeste 0 -- -- 52
2020-03-04 15:00:00 18.5 13 Oeste 30 Oeste 0 -- -- 51
2020-03-04 14:00:00 18 13 Oeste 36 Oeste 0 -- -- 54
2020-03-04 13:00:00 16.5 9 Oeste 23 Oeste 0 -- -- 60
2020-03-04 12:00:00 15.6 10 Oeste 25 Oeste 0 -- -- 63
2020-03-04 11:00:00 15.1 11 Oeste 24 Oeste 0 -- -- 65
2020-03-04 10:00:00 14.1 7 Noroeste 16 Oeste 0 -- -- 69
2020-03-04 09:00:00 13 5 Noroeste 13 Noroeste 0 -- -- 77
2020-03-04 08:00:00 12.4 4 Noroeste 8 Oeste 0 -- -- 84
2020-03-04 07:00:00 12.6 5 Noroeste 18 Noroeste 0 -- -- 86
2020-03-04 06:00:00 13.4 6 Noroeste 22 Noroeste 0 -- -- 77
2020-03-04 05:00:00 13.1 3 Noroeste 14 Noroeste 0 -- -- 84
2020-03-04 04:00:00 13.3 5 Noroeste 16 Oeste 0 -- -- 83
2020-03-04 03:00:00 13.1 0 Calma 8 Noroeste 0 -- -- 86
2020-03-04 02:00:00 12.9 0 Calma 6 Sudeste 0 -- -- 86
2020-03-04 01:00:00 13.3 3 Sudeste 6 Sur 0 -- -- 84
2020-03-04 00:00:00 13.3 0 Calma 9 Sudeste 0 -- -- 85
2020-03-03 23:00:00 13.7 3 Sur 9 Sudoeste 0 -- -- 82
2020-03-03 22:00:00 14.2 4 Sudoeste 13 Oeste 0 -- -- 78
2020-03-03 21:00:00 14.8 0 Calma 12 Noroeste 0 -- -- 76
2020-03-03 20:00:00 15.3 4 Noroeste 20 Sudoeste 0 -- -- 73
2020-03-03 19:00:00 15.7 10 Oeste 26 Oeste 0 -- -- 69
2020-03-03 18:00:00 15 5 Oeste 16 Sudoeste 0 -- -- 69
2020-03-03 17:00:00 15.8 4 Sur 17 Oeste 0 -- -- 64
2020-03-03 16:00:00 14.5 8 Sudoeste 24 Sudoeste 0 -- -- 65
2020-03-03 15:00:00 14.1 12 Sudoeste 26 Sudoeste 0 -- -- 64
2020-03-03 14:00:00 15.1 10 Oeste 23 Sudoeste 0 -- -- 60
2020-03-03 13:00:00 15.2 13 Oeste 26 Oeste 0 -- -- 58
2020-03-03 12:00:00 13.3 5 Oeste 12 Noroeste 0 -- -- 61
2020-03-03 11:00:00 10.3 3 Este 9 Sudeste 0 -- -- 72
2020-03-03 10:00:00 8.4 0 Calma 5 Sur 0 -- -- 81
2020-03-03 09:00:00 6.6 0 Calma 3 Este 0 -- -- 90
2020-03-03 08:00:00 5.7 0 Calma 5 Noroeste 0 -- -- 91
2020-03-03 07:00:00 4.8 0 Calma 8 Noroeste 0 -- -- 89
2020-03-03 06:00:00 4.5 3 Noroeste 5 Noroeste 0 -- -- 89
2020-03-03 05:00:00 6.1 0 Calma 10 Noroeste 0 -- -- 84
2020-03-03 04:00:00 7.7 6 Noroeste 12 Noroeste 0 -- -- 80
2020-03-03 03:00:00 7 2 Oeste 6 Noroeste 0 -- -- 82
2020-03-03 02:00:00 7.8 4 Noroeste 9 Noroeste 0 -- -- 77
2020-03-03 01:00:00 7.7 3 Noroeste 10 Noroeste 0 -- -- 77
2020-03-03 00:00:00 6.8 3 Noroeste 9 Noroeste 0 -- -- 79
2020-03-02 23:00:00 8.1 4 Noroeste 8 Noroeste 0 -- -- 73
2020-03-02 22:00:00 9.9 5 Noroeste 11 Noroeste 0 -- -- 66
2020-03-02 21:00:00 10.8 2 Noroeste 18 Noroeste 0 -- -- 64
2020-03-02 20:00:00 11.8 10 Noroeste 30 Noroeste 0 -- -- 59
2020-03-02 19:00:00 13 13 Noroeste 39 Oeste 0 -- -- 54
2020-03-02 18:00:00 13.9 19 Noroeste 45 Noroeste 0 -- -- 53
2020-03-02 17:00:00 15.4 23 Noroeste 47 Oeste 0 -- -- 49
2020-03-02 16:00:00 15.8 21 Noroeste 46 Oeste 0 -- -- 50
2020-03-02 15:00:00 16.6 22 Oeste 45 Oeste 0 -- -- 50
2020-03-02 14:00:00 16.1 22 Noroeste 45 Oeste 0 -- -- 50
2020-03-02 13:00:00 15.5 21 Oeste 45 Oeste 0 -- -- 54
2020-03-02 12:00:00 16.1 26 Oeste 50 Oeste 0 -- -- 55
2020-03-02 11:00:00 15.7 21 Oeste 42 Oeste 0 -- -- 69
2020-03-02 10:00:00 13.3 10 Oeste 30 Oeste 0.6 -- -- 88
2020-03-02 09:00:00 13.2 12 Oeste 31 Sudoeste 0.2 -- -- 86
2020-03-02 08:00:00 12.9 14 Sudoeste 36 Oeste 0 -- -- 85
2020-03-02 07:00:00 12.6 15 Sudoeste 33 Oeste 0 -- -- 86
2020-03-02 06:00:00 12.6 10 Sudoeste 32 Oeste 1.6 -- -- 85
2020-03-02 05:00:00 13.5 12 Oeste 39 Oeste 0 -- -- 80
2020-03-02 04:00:00 13.3 10 Sudoeste 37 Sudoeste 0 -- -- 81
2020-03-02 03:00:00 13.3 14 Sudoeste 31 Sudoeste 0 -- -- 81
2020-03-02 02:00:00 13.1 10 Sudoeste 27 Sudoeste 0 -- -- 83
2020-03-02 01:00:00 13.1 11 Sudoeste 35 Oeste 0 -- -- 81
2020-03-02 00:00:00 12.9 12 Sudoeste 32 Oeste 0 -- -- 82
2020-03-01 23:00:00 12.9 14 Sudoeste 35 Sudoeste 0 -- -- 88
2020-03-01 22:00:00 13.3 7 Sudoeste 23 Sudoeste 0 -- -- 88
2020-03-01 21:00:00 13.4 6 Sudoeste 22 Sudoeste 0 -- -- 87
2020-03-01 20:00:00 13.7 7 Sudoeste 23 Sudoeste 0 -- -- 80
2020-03-01 19:00:00 14 7 Sudoeste 22 Sudoeste 0 -- -- 76
2020-03-01 18:00:00 14.3 8 Sudoeste 24 Sudoeste 0 -- -- 75
2020-03-01 17:00:00 14.4 7 Sur 20 Sur 0 -- -- 74
2020-03-01 16:00:00 15.2 8 Sudoeste 24 Sudoeste 0 -- -- 69
2020-03-01 15:00:00 15.6 10 Sudoeste 21 Sudoeste 0 -- -- 66
2020-03-01 14:00:00 14.8 8 Sudoeste 24 Sudoeste 0 -- -- 68
2020-03-01 13:00:00 14.2 11 Sudoeste 23 Sudoeste 0 -- -- 68
2020-03-01 12:00:00 13.3 8 Sudoeste 19 Sudoeste 0 -- -- 70
2020-03-01 11:00:00 11.9 5 Oeste 13 Oeste 0 -- -- 75
2020-03-01 10:00:00 11.5 5 Oeste 14 Oeste 0 -- -- 79
2020-03-01 09:00:00 10.2 2 Sur 6 Sur 0 -- -- 88
2020-03-01 08:00:00 8.2 0 Calma 5 Este 0 -- -- 93
2020-03-01 07:00:00 8.7 0 Calma 8 Oeste 0 -- -- 88
2020-03-01 06:00:00 10.2 3 Noroeste 13 Oeste 0 -- -- 86
2020-03-01 05:00:00 10.3 4 Oeste 12 Sudoeste 0 -- -- 87
2020-03-01 04:00:00 10.3 3 Noroeste 10 Noroeste 0 -- -- 88
2020-03-01 03:00:00 10.2 4 Noroeste 10 Noroeste 0 -- -- 88
2020-03-01 02:00:00 11.2 7 Noroeste 12 Noroeste 0 -- -- 86
2020-03-01 01:00:00 11.8 4 Noroeste 10 Oeste 0 -- -- 88
2020-03-01 00:00:00 12.4 4 Oeste 19 Oeste 0 -- -- 87
2020-02-29 23:00:00 12.6 9 Sudoeste 18 Oeste 0 -- -- 87
2020-02-29 22:00:00 12.3 7 Sudoeste 17 Sudoeste 0.2 -- -- 93
2020-02-29 21:00:00 12.3 4 Sudoeste 13 Sudoeste 0.4 -- -- 91
2020-02-29 20:00:00 12.5 5 Sudoeste 14 Sudoeste 0 -- -- 88
2020-02-29 19:00:00 12.8 10 Sudoeste 21 Sudoeste 0 -- -- 82
2020-02-29 18:00:00 13.1 8 Sudoeste 22 Sudoeste 0 -- -- 77
2020-02-29 17:00:00 13.5 9 Sudoeste 28 Sudoeste 0 -- -- 76
2020-02-29 16:00:00 14.7 8 Sudoeste 31 Sur 0 -- -- 68
2020-02-29 15:00:00 14.9 9 Sur 24 Sudoeste 0 -- -- 66
2020-02-29 14:00:00 15.1 10 Sudoeste 21 Sudoeste 0 -- -- 65
2020-02-29 13:00:00 15.3 6 Sudoeste 20 Sudoeste 0 -- -- 64
2020-02-29 12:00:00 14.1 5 Sur 13 Sudeste 0 -- -- 66
2020-02-29 11:00:00 11.5 5 Oeste 14 Oeste 0 -- -- 74
2020-02-29 10:00:00 10.7 3 Noroeste 8 Noroeste 0 -- -- 81
2020-02-29 09:00:00 8 3 Este 6 Nordeste 0 -- -- 96
2020-02-29 08:00:00 5.8 0 Calma 5 Este 0 -- -- 92
2020-02-29 07:00:00 7.4 0 Calma 12 Sur 0 -- -- 90
2020-02-29 06:00:00 7.6 3 Sur 11 Este 0 -- -- 91
2020-02-29 05:00:00 7.9 0 Calma 11 Sudeste 0 -- -- 84
2020-02-29 04:00:00 9.2 5 Sudeste 9 Sudeste 0 -- -- 78
2020-02-29 03:00:00 10 0 Calma 15 Sudoeste 0 -- -- 64
2020-02-29 02:00:00 11 4 Sur 13 Sur 0 -- -- 58
2020-02-29 01:00:00 12.1 3 Este 25 Sudoeste 0 -- -- 60
2020-02-29 00:00:00 13.7 10 Sudoeste 22 Sudoeste 0 -- -- 56
2020-02-28 23:00:00 11.7 3 Noroeste 10 Noroeste 0 -- -- 70
2020-02-28 22:00:00 10.9 0 Calma 11 Sudoeste 0 -- -- 68
2020-02-28 21:00:00 11.6 3 Norte 8 Oeste 0 -- -- 63
2020-02-28 20:00:00 13.9 0 Calma 13 Sudoeste 0 -- -- 55
2020-02-28 19:00:00 18.4 3 Sudoeste 12 Sudoeste 0 -- -- 42
2020-02-28 18:00:00 20 4 Sur 17 Sur 0 -- -- 37
2020-02-28 17:00:00 21.3 9 Sur 19 Sur 0 -- -- 33
2020-02-28 16:00:00 21.7 10 Sudoeste 20 Sudoeste 0 -- -- 25
2020-02-28 15:00:00 21.7 10 Sur 21 Sur 0 -- -- 28
2020-02-28 14:00:00 21.2 6 Sudeste 16 Este 0 -- -- 31
2020-02-28 13:00:00 19.5 8 Este 22 Este 0 -- -- 35
2020-02-28 12:00:00 17.4 6 Sudeste 20 Este 0 -- -- 48
2020-02-28 11:00:00 10.8 4 Oeste 8 Sudoeste 0 -- -- 76
2020-02-28 10:00:00 8 0 Calma 4 Sudoeste 0 -- -- 83
2020-02-28 09:00:00 4.4 0 Calma 4 Noroeste 0 -- -- 96
2020-02-28 08:00:00 2.2 0 Calma 4 Noroeste 0 -- -- 94
2020-02-28 07:00:00 2.6 2 Norte 3 Noroeste 0 -- -- 93
2020-02-28 06:00:00 2.8 0 Calma 3 Norte 0 -- -- 92
2020-02-28 05:00:00 3.5 0 Calma 5 Norte 0 -- -- 91
2020-02-28 04:00:00 4.1 3 Noroeste 6 Norte 0 -- -- 91
2020-02-28 03:00:00 4.6 0 Calma 4 Nordeste 0 -- -- 90
2020-02-28 02:00:00 5 0 Calma 4 Nordeste 0 -- -- 88
2020-02-28 01:00:00 5.9 0 Calma 7 Norte 0 -- -- 83
2020-02-28 00:00:00 7.6 3 Norte 8 Norte 0 -- -- 78